Harlingen, TX (78550)

3:35 AM CDT on October 26, 2014 (GMT -0500)
KNIGHTWOOD/WD5ADC | Change Station
CLOSE
Current Station
Personal Weather Station
Location: Harlingen, TX
Elevation: 49 ft
Nearby Weather Stations

Elev 49 ft 26.22 °N, 97.69 °W | Updated 5 minutes ago

Clear
Clear
64.1 °F
Feels Like 64.1 °F
N
0.0
Wind Variable Wind from SE
Gusts 0.0 mph

Today
High -- | Low -- °F
--% Chance of Precip.
Yesterday
High -- | Low -- °F
Precip. -- in
7:35 AM 6:53 PM
Waxing Crescent, 6% visible
Pressure 30.05 in
Visibility 10.0 miles
Clouds Clear
Dew Point 63 °F
Humidity 95%
Rainfall 0.00 in
Snow Depth Not available.
UV 0 out of 12
Pollen 5.40 out of 12
Ozone Good
PM2.5 Good
Flu Activity Local Activity
METAR KHRL 260752Z 00000KT 10SM CLR 17/17 A3005 RMK AO2 SLP176 T01720167

More Conditions Fewer Conditions

Pressure 30.05 in
Visibility 10.0 miles
Clouds Clear
Dew Point 63 °F
Humidity 95%
Rainfall 0.00 in
Snow Depth Not available.
UV 0 out of 12
Pollen 5.40 out of 12
Ozone Good
PM2.5 Good
Flu Activity Local Activity
METAR KHRL 260752Z 00000KT 10SM CLR 17/17 A3005 RMK AO2 SLP176 T01720167

More Conditions Fewer Conditions

10-Day Weather Forecast

Almanac

Astronomy

Oct. 26, 2014 Rise Set
Actual Time 7:35 AM CDT 6:53 PM CDT
Civil Twilight 7:12 AM CDT 7:16 PM CDT
Nautical Twilight 6:45 AM CDT 7:43 PM CDT
Astronomical Twilight 6:18 AM CDT 8:10 PM CDT
Moon 10:05 AM CDT 9:16 PM CDT
Length of Visible Light 12h 04m
Length of Day
11h 17m
Tomorrow will be 1m 24s shorter.
Waxing Crescent, 6% of the Moon is Illuminated
Today
Waxing Crescent
Oct 30
First Quarter
Nov 6
Full
Nov 14
Last Quarter
Nov 22
New

Today's Extremes

State Highs State Lows

Community

WunderPhotos

Upload Photos

1,765,127 photos uploaded!

Nearby

Air Quality

  Air Quality AQ Index Pollutant
Yesterday Moderate
PM2.5
Yesterday Good
OZONE
Current Good
PM2.5
Current Good
OZONE
Sunday Good
PM10
Sunday Good
OZONE
Monday Good
PM10
Monday Good
OZONE
Tuesday Good
PM10
Tuesday Good
OZONE

Snow Depth

Station Depth Elevation
No new snow has been reported.

Earthquake Activity

City Distance Mag. Time & Date
No recent earthquake activity has been reported nearby.
Minimum magnitude displayed is 2.5.

Coastal Water Temperatures

Place Temperature
Port Isabel, TX 78.1 °F
Baffin Bay Point of Rocks, TX 82.0 °F
South Bird Island, TX 77.0 °F
Malaquite Beach (Corpus Christi), TX 79.0 °F
Packery Channel, TX 78.1 °F

Nearby Weather Stations